sensor_id;sensor_type;location;lat;lon;timestamp;P1;durP1;ratioP1;P2;durP2;ratioP2
2618;SDS011;1319;52.346;13.096;2023-08-20T00:01:53;22.53;;;16.10;;
2618;SDS011;1319;52.346;13.096;2023-08-20T00:04:21;48.77;;;18.70;;
2618;SDS011;1319;52.346;13.096;2023-08-20T00:06:47;30.30;;;16.00;;
2618;SDS011;1319;52.346;13.096;2023-08-20T00:09:12;22.97;;;15.87;;
2618;SDS011;1319;52.346;13.096;2023-08-20T00:11:37;29.83;;;17.00;;
2618;SDS011;1319;52.346;13.096;2023-08-20T00:14:03;21.70;;;15.40;;
2618;SDS011;1319;52.346;13.096;2023-08-20T00:16:28;21.53;;;15.80;;
2618;SDS011;1319;52.346;13.096;2023-08-20T00:18:54;27.17;;;16.70;;
2618;SDS011;1319;52.346;13.096;2023-08-20T00:21:19;19.00;;;15.20;;
2618;SDS011;1319;52.346;13.096;2023-08-20T00:23:44;18.05;;;14.65;;
2618;SDS011;1319;52.346;13.096;2023-08-20T00:26:10;18.33;;;15.40;;
2618;SDS011;1319;52.346;13.096;2023-08-20T00:28:37;17.10;;;14.85;;
2618;SDS011;1319;52.346;13.096;2023-08-20T00:31:03;18.10;;;14.45;;
2618;SDS011;1319;52.346;13.096;2023-08-20T00:33:28;17.30;;;13.98;;
2618;SDS011;1319;52.346;13.096;2023-08-20T00:35:54;18.40;;;14.32;;
2618;SDS011;1319;52.346;13.096;2023-08-20T00:38:19;19.70;;;13.93;;
2618;SDS011;1319;52.346;13.096;2023-08-20T00:40:44;18.73;;;12.65;;
2618;SDS011;1319;52.346;13.096;2023-08-20T00:43:10;19.40;;;12.98;;
2618;SDS011;1319;52.346;13.096;2023-08-20T00:45:35;14.73;;;12.13;;
2618;SDS011;1319;52.346;13.096;2023-08-20T00:48:01;24.55;;;12.48;;
2618;SDS011;1319;52.346;13.096;2023-08-20T00:50:26;16.80;;;12.05;;
2618;SDS011;1319;52.346;13.096;2023-08-20T00:52:52;18.60;;;11.68;;
2618;SDS011;1319;52.346;13.096;2023-08-20T00:55:17;15.82;;;12.18;;
2618;SDS011;1319;52.346;13.096;2023-08-20T00:57:42;16.20;;;12.68;;
2618;SDS011;1319;52.346;13.096;2023-08-20T01:00:08;15.45;;;12.05;;
2618;SDS011;1319;52.346;13.096;2023-08-20T01:02:34;13.82;;;11.43;;
2618;SDS011;1319;52.346;13.096;2023-08-20T01:04:59;13.27;;;11.63;;
2618;SDS011;1319;52.346;13.096;2023-08-20T01:07:39;14.80;;;11.52;;
2618;SDS011;1319;52.346;13.096;2023-08-20T01:10:14;13.90;;;11.35;;
2618;SDS011;1319;52.346;13.096;2023-08-20T01:12:42;13.82;;;10.98;;
2618;SDS011;1319;52.346;13.096;2023-08-20T01:15:08;14.95;;;10.57;;
2618;SDS011;1319;52.346;13.096;2023-08-20T01:17:39;15.73;;;11.70;;
2618;SDS011;1319;52.346;13.096;2023-08-20T01:20:04;15.48;;;11.32;;
2618;SDS011;1319;52.346;13.096;2023-08-20T01:25:39;11.80;;;9.60;;
2618;SDS011;1319;52.346;13.096;2023-08-20T01:28:30;11.57;;;9.50;;
2618;SDS011;1319;52.346;13.096;2023-08-20T01:30:29;12.55;;;9.70;;
2618;SDS011;1319;52.346;13.096;2023-08-20T01:32:55;12.98;;;9.63;;
2618;SDS011;1319;52.346;13.096;2023-08-20T01:35:22;12.90;;;9.18;;
2618;SDS011;1319;52.346;13.096;2023-08-20T01:37:49;13.95;;;9.00;;
2618;SDS011;1319;52.346;13.096;2023-08-20T01:40:14;11.35;;;9.63;;
2618;SDS011;1319;52.346;13.096;2023-08-20T01:42:39;12.13;;;8.57;;
2618;SDS011;1319;52.346;13.096;2023-08-20T01:45:05;12.65;;;8.95;;
2618;SDS011;1319;52.346;13.096;2023-08-20T01:47:31;13.35;;;9.30;;
2618;SDS011;1319;52.346;13.096;2023-08-20T01:49:56;10.30;;;8.52;;
2618;SDS011;1319;52.346;13.096;2023-08-20T01:52:21;15.07;;;8.98;;
2618;SDS011;1319;52.346;13.096;2023-08-20T01:54:47;13.63;;;8.90;;
2618;SDS011;1319;52.346;13.096;2023-08-20T01:57:13;12.95;;;9.38;;
2618;SDS011;1319;52.346;13.096;2023-08-20T01:59:38;13.60;;;9.30;;
2618;SDS011;1319;52.346;13.096;2023-08-20T02:02:03;13.25;;;8.95;;
2618;SDS011;1319;52.346;13.096;2023-08-20T02:04:29;12.73;;;9.98;;
2618;SDS011;1319;52.346;13.096;2023-08-20T02:06:54;15.23;;;9.25;;
2618;SDS011;1319;52.346;13.096;2023-08-20T02:09:19;14.82;;;9.18;;
2618;SDS011;1319;52.346;13.096;2023-08-20T02:11:45;10.45;;;8.60;;
2618;SDS011;1319;52.346;13.096;2023-08-20T02:14:11;13.65;;;9.35;;
2618;SDS011;1319;52.346;13.096;2023-08-20T02:16:36;15.77;;;9.05;;
2618;SDS011;1319;52.346;13.096;2023-08-20T02:19:02;14.43;;;9.18;;
2618;SDS011;1319;52.346;13.096;2023-08-20T02:21:28;11.77;;;9.38;;
2618;SDS011;1319;52.346;13.096;2023-08-20T02:23:53;14.43;;;9.18;;
2618;SDS011;1319;52.346;13.096;2023-08-20T02:26:18;12.10;;;9.25;;
2618;SDS011;1319;52.346;13.096;2023-08-20T02:28:43;11.85;;;9.23;;
2618;SDS011;1319;52.346;13.096;2023-08-20T02:31:09;13.82;;;9.50;;
2618;SDS011;1319;52.346;13.096;2023-08-20T02:33:34;15.85;;;9.55;;
2618;SDS011;1319;52.346;13.096;2023-08-20T02:36:02;11.77;;;9.02;;
2618;SDS011;1319;52.346;13.096;2023-08-20T02:38:28;16.70;;;9.43;;
2618;SDS011;1319;52.346;13.096;2023-08-20T02:40:53;16.23;;;9.93;;
2618;SDS011;1319;52.346;13.096;2023-08-20T02:43:18;11.07;;;9.13;;
2618;SDS011;1319;52.346;13.096;2023-08-20T02:45:43;12.43;;;9.35;;
2618;SDS011;1319;52.346;13.096;2023-08-20T02:48:09;13.77;;;9.50;;
2618;SDS011;1319;52.346;13.096;2023-08-20T02:50:34;12.70;;;9.35;;
2618;SDS011;1319;52.346;13.096;2023-08-20T02:53:00;15.90;;;9.93;;
2618;SDS011;1319;52.346;13.096;2023-08-20T02:55:25;14.02;;;10.05;;
2618;SDS011;1319;52.346;13.096;2023-08-20T02:57:50;10.73;;;9.63;;
2618;SDS011;1319;52.346;13.096;2023-08-20T03:00:16;15.10;;;10.40;;
2618;SDS011;1319;52.346;13.096;2023-08-20T03:02:41;12.27;;;10.20;;
2618;SDS011;1319;52.346;13.096;2023-08-20T03:05:07;16.85;;;9.75;;
2618;SDS011;1319;52.346;13.096;2023-08-20T03:07:33;17.27;;;9.88;;
2618;SDS011;1319;52.346;13.096;2023-08-20T03:09:58;12.43;;;9.80;;
2618;SDS011;1319;52.346;13.096;2023-08-20T03:12:23;13.13;;;10.10;;
2618;SDS011;1319;52.346;13.096;2023-08-20T03:14:48;14.98;;;10.35;;
2618;SDS011;1319;52.346;13.096;2023-08-20T03:17:13;12.75;;;10.23;;
2618;SDS011;1319;52.346;13.096;2023-08-20T03:19:46;15.65;;;10.18;;
2618;SDS011;1319;52.346;13.096;2023-08-20T03:22:18;16.23;;;10.65;;
2618;SDS011;1319;52.346;13.096;2023-08-20T03:24:43;17.42;;;11.23;;
2618;SDS011;1319;52.346;13.096;2023-08-20T03:27:08;15.43;;;10.02;;
2618;SDS011;1319;52.346;13.096;2023-08-20T03:29:33;13.88;;;11.18;;
2618;SDS011;1319;52.346;13.096;2023-08-20T03:31:58;16.42;;;10.68;;
2618;SDS011;1319;52.346;13.096;2023-08-20T03:34:24;17.63;;;11.80;;
2618;SDS011;1319;52.346;13.096;2023-08-20T03:36:49;16.25;;;11.95;;
2618;SDS011;1319;52.346;13.096;2023-08-20T03:39:14;15.98;;;11.85;;
2618;SDS011;1319;52.346;13.096;2023-08-20T03:41:39;18.38;;;12.20;;
2618;SDS011;1319;52.346;13.096;2023-08-20T03:44:05;16.17;;;11.77;;
2618;SDS011;1319;52.346;13.096;2023-08-20T03:46:30;15.77;;;12.00;;
2618;SDS011;1319;52.346;13.096;2023-08-20T03:48:56;15.23;;;11.75;;
2618;SDS011;1319;52.346;13.096;2023-08-20T03:51:21;16.25;;;13.02;;
2618;SDS011;1319;52.346;13.096;2023-08-20T03:53:46;18.35;;;12.80;;
2618;SDS011;1319;52.346;13.096;2023-08-20T03:56:11;17.27;;;12.77;;
2618;SDS011;1319;52.346;13.096;2023-08-20T03:58:37;19.00;;;12.73;;
2618;SDS011;1319;52.346;13.096;2023-08-20T04:01:02;17.13;;;13.60;;
2618;SDS011;1319;52.346;13.096;2023-08-20T04:03:28;19.02;;;13.18;;
2618;SDS011;1319;52.346;13.096;2023-08-20T04:05:53;20.40;;;14.02;;
2618;SDS011;1319;52.346;13.096;2023-08-20T04:08:19;19.23;;;14.15;;
2618;SDS011;1319;52.346;13.096;2023-08-20T04:10:44;19.17;;;13.68;;
2618;SDS011;1319;52.346;13.096;2023-08-20T04:13:10;20.05;;;13.25;;
2618;SDS011;1319;52.346;13.096;2023-08-20T04:15:36;18.02;;;13.85;;
2618;SDS011;1319;52.346;13.096;2023-08-20T04:18:02;18.90;;;15.00;;
2618;SDS011;1319;52.346;13.096;2023-08-20T04:20:27;18.52;;;14.07;;
2618;SDS011;1319;52.346;13.096;2023-08-20T04:22:52;21.55;;;14.70;;
2618;SDS011;1319;52.346;13.096;2023-08-20T04:25:17;18.67;;;14.00;;
2618;SDS011;1319;52.346;13.096;2023-08-20T04:27:43;21.95;;;15.02;;
2618;SDS011;1319;52.346;13.096;2023-08-20T04:30:08;21.77;;;14.88;;
2618;SDS011;1319;52.346;13.096;2023-08-20T04:32:34;19.95;;;14.48;;
2618;SDS011;1319;52.346;13.096;2023-08-20T04:34:59;23.48;;;15.27;;
2618;SDS011;1319;52.346;13.096;2023-08-20T04:37:24;21.98;;;14.45;;
2618;SDS011;1319;52.346;13.096;2023-08-20T04:39:49;21.17;;;14.80;;
2618;SDS011;1319;52.346;13.096;2023-08-20T04:42:15;22.00;;;14.07;;
2618;SDS011;1319;52.346;13.096;2023-08-20T04:44:40;25.48;;;14.75;;
2618;SDS011;1319;52.346;13.096;2023-08-20T04:47:05;19.20;;;14.13;;
2618;SDS011;1319;52.346;13.096;2023-08-20T04:49:30;22.13;;;14.45;;
2618;SDS011;1319;52.346;13.096;2023-08-20T04:51:56;17.92;;;14.18;;
2618;SDS011;1319;52.346;13.096;2023-08-20T04:54:21;20.17;;;13.80;;
2618;SDS011;1319;52.346;13.096;2023-08-20T04:56:46;18.77;;;13.68;;
2618;SDS011;1319;52.346;13.096;2023-08-20T04:59:11;16.58;;;13.20;;
2618;SDS011;1319;52.346;13.096;2023-08-20T05:01:37;18.83;;;13.40;;
2618;SDS011;1319;52.346;13.096;2023-08-20T05:04:03;22.00;;;13.90;;
2618;SDS011;1319;52.346;13.096;2023-08-20T05:06:28;16.65;;;13.25;;
2618;SDS011;1319;52.346;13.096;2023-08-20T05:08:53;17.23;;;12.38;;
2618;SDS011;1319;52.346;13.096;2023-08-20T05:11:19;17.23;;;12.38;;
2618;SDS011;1319;52.346;13.096;2023-08-20T05:13:45;17.58;;;13.02;;
2618;SDS011;1319;52.346;13.096;2023-08-20T05:16:10;17.38;;;12.07;;
2618;SDS011;1319;52.346;13.096;2023-08-20T05:18:35;17.52;;;11.88;;
2618;SDS011;1319;52.346;13.096;2023-08-20T05:21:00;15.45;;;10.65;;
2618;SDS011;1319;52.346;13.096;2023-08-20T05:23:26;13.02;;;11.00;;
2618;SDS011;1319;52.346;13.096;2023-08-20T05:25:51;21.15;;;10.02;;
2618;SDS011;1319;52.346;13.096;2023-08-20T05:28:16;12.65;;;10.15;;
2618;SDS011;1319;52.346;13.096;2023-08-20T05:30:41;11.75;;;10.07;;
2618;SDS011;1319;52.346;13.096;2023-08-20T05:33:06;11.52;;;9.38;;
2618;SDS011;1319;52.346;13.096;2023-08-20T05:35:32;15.93;;;8.57;;
2618;SDS011;1319;52.346;13.096;2023-08-20T05:37:57;16.17;;;8.35;;
2618;SDS011;1319;52.346;13.096;2023-08-20T05:40:22;8.30;;;7.00;;
2618;SDS011;1319;52.346;13.096;2023-08-20T05:42:47;11.55;;;7.18;;
2618;SDS011;1319;52.346;13.096;2023-08-20T05:45:13;8.43;;;7.28;;
2618;SDS011;1319;52.346;13.096;2023-08-20T05:47:38;11.65;;;7.60;;
2618;SDS011;1319;52.346;13.096;2023-08-20T05:50:03;9.48;;;5.85;;
2618;SDS011;1319;52.346;13.096;2023-08-20T05:52:28;7.75;;;6.15;;
2618;SDS011;1319;52.346;13.096;2023-08-20T05:54:54;7.47;;;6.18;;
2618;SDS011;1319;52.346;13.096;2023-08-20T05:57:19;7.15;;;6.03;;
2618;SDS011;1319;52.346;13.096;2023-08-20T05:59:44;6.97;;;6.20;;
2618;SDS011;1319;52.346;13.096;2023-08-20T06:02:09;7.60;;;5.68;;
2618;SDS011;1319;52.346;13.096;2023-08-20T06:04:35;6.45;;;4.90;;
2618;SDS011;1319;52.346;13.096;2023-08-20T06:07:00;7.75;;;4.55;;
2618;SDS011;1319;52.346;13.096;2023-08-20T06:09:25;6.25;;;4.25;;
2618;SDS011;1319;52.346;13.096;2023-08-20T06:11:51;5.10;;;3.78;;
2618;SDS011;1319;52.346;13.096;2023-08-20T06:14:16;3.95;;;3.60;;
2618;SDS011;1319;52.346;13.096;2023-08-20T06:16:41;6.25;;;3.60;;
2618;SDS011;1319;52.346;13.096;2023-08-20T06:19:07;4.75;;;3.30;;
2618;SDS011;1319;52.346;13.096;2023-08-20T06:21:32;4.57;;;3.00;;
2618;SDS011;1319;52.346;13.096;2023-08-20T06:23:57;5.18;;;3.20;;
2618;SDS011;1319;52.346;13.096;2023-08-20T06:26:22;3.85;;;3.00;;
2618;SDS011;1319;52.346;13.096;2023-08-20T06:28:48;3.00;;;2.70;;
2618;SDS011;1319;52.346;13.096;2023-08-20T06:31:13;4.53;;;3.08;;
2618;SDS011;1319;52.346;13.096;2023-08-20T06:33:38;2.60;;;2.40;;
2618;SDS011;1319;52.346;13.096;2023-08-20T06:36:03;2.63;;;2.40;;
2618;SDS011;1319;52.346;13.096;2023-08-20T06:38:29;2.97;;;2.70;;
2618;SDS011;1319;52.346;13.096;2023-08-20T06:40:55;4.95;;;2.33;;
2618;SDS011;1319;52.346;13.096;2023-08-20T06:43:20;2.38;;;2.20;;
2618;SDS011;1319;52.346;13.096;2023-08-20T06:45:46;3.78;;;2.40;;
2618;SDS011;1319;52.346;13.096;2023-08-20T06:48:11;4.95;;;2.10;;
2618;SDS011;1319;52.346;13.096;2023-08-20T06:50:36;4.57;;;2.42;;
2618;SDS011;1319;52.346;13.096;2023-08-20T06:53:01;2.88;;;2.10;;
2618;SDS011;1319;52.346;13.096;2023-08-20T06:55:27;2.50;;;2.30;;
2618;SDS011;1319;52.346;13.096;2023-08-20T06:57:52;3.03;;;2.40;;
2618;SDS011;1319;52.346;13.096;2023-08-20T07:00:17;5.95;;;2.38;;
2618;SDS011;1319;52.346;13.096;2023-08-20T07:02:44;4.07;;;2.25;;
2618;SDS011;1319;52.346;13.096;2023-08-20T07:05:09;4.03;;;2.28;;
2618;SDS011;1319;52.346;13.096;2023-08-20T07:07:35;3.03;;;2.30;;
2618;SDS011;1319;52.346;13.096;2023-08-20T07:10:00;3.53;;;2.25;;
2618;SDS011;1319;52.346;13.096;2023-08-20T07:12:25;2.85;;;2.40;;
2618;SDS011;1319;52.346;13.096;2023-08-20T07:14:51;2.25;;;1.88;;
2618;SDS011;1319;52.346;13.096;2023-08-20T07:17:16;4.75;;;2.17;;
2618;SDS011;1319;52.346;13.096;2023-08-20T07:19:41;2.28;;;1.85;;
2618;SDS011;1319;52.346;13.096;2023-08-20T07:22:06;6.53;;;2.55;;
2618;SDS011;1319;52.346;13.096;2023-08-20T07:24:31;2.42;;;2.17;;
2618;SDS011;1319;52.346;13.096;2023-08-20T07:27:00;4.63;;;2.28;;
2618;SDS011;1319;52.346;13.096;2023-08-20T07:29:26;2.20;;;2.05;;
2618;SDS011;1319;52.346;13.096;2023-08-20T07:31:54;3.55;;;2.45;;
2618;SDS011;1319;52.346;13.096;2023-08-20T07:34:20;4.28;;;2.35;;
2618;SDS011;1319;52.346;13.096;2023-08-20T07:36:45;2.13;;;2.03;;
2618;SDS011;1319;52.346;13.096;2023-08-20T07:39:12;3.67;;;2.35;;
2618;SDS011;1319;52.346;13.096;2023-08-20T07:41:37;2.55;;;2.30;;
2618;SDS011;1319;52.346;13.096;2023-08-20T07:44:02;2.95;;;2.28;;
2618;SDS011;1319;52.346;13.096;2023-08-20T07:46:28;3.40;;;2.20;;
2618;SDS011;1319;52.346;13.096;2023-08-20T07:48:53;2.53;;;2.33;;
2618;SDS011;1319;52.346;13.096;2023-08-20T07:51:18;2.17;;;2.00;;
2618;SDS011;1319;52.346;13.096;2023-08-20T07:53:43;3.75;;;2.38;;
2618;SDS011;1319;52.346;13.096;2023-08-20T07:56:09;2.95;;;2.30;;
2618;SDS011;1319;52.346;13.096;2023-08-20T07:58:34;3.67;;;2.40;;
2618;SDS011;1319;52.346;13.096;2023-08-20T08:01:00;4.22;;;2.58;;
2618;SDS011;1319;52.346;13.096;2023-08-20T08:03:25;3.30;;;2.50;;
2618;SDS011;1319;52.346;13.096;2023-08-20T08:05:51;2.20;;;2.10;;
2618;SDS011;1319;52.346;13.096;2023-08-20T08:08:18;2.78;;;2.45;;
2618;SDS011;1319;52.346;13.096;2023-08-20T08:10:43;7.03;;;2.38;;
2618;SDS011;1319;52.346;13.096;2023-08-20T08:13:10;5.20;;;2.25;;
2618;SDS011;1319;52.346;13.096;2023-08-20T08:15:36;6.03;;;2.38;;
2618;SDS011;1319;52.346;13.096;2023-08-20T08:18:01;2.85;;;2.00;;
2618;SDS011;1319;52.346;13.096;2023-08-20T08:20:26;2.63;;;1.92;;
2618;SDS011;1319;52.346;13.096;2023-08-20T08:22:51;2.22;;;2.10;;
2618;SDS011;1319;52.346;13.096;2023-08-20T08:25:17;2.17;;;2.00;;
2618;SDS011;1319;52.346;13.096;2023-08-20T08:27:42;2.35;;;2.22;;
2618;SDS011;1319;52.346;13.096;2023-08-20T08:30:08;3.95;;;2.05;;
2618;SDS011;1319;52.346;13.096;2023-08-20T08:32:33;4.90;;;2.30;;
2618;SDS011;1319;52.346;13.096;2023-08-20T08:34:58;2.42;;;2.10;;
2618;SDS011;1319;52.346;13.096;2023-08-20T08:37:23;4.18;;;2.00;;
2618;SDS011;1319;52.346;13.096;2023-08-20T08:39:49;3.85;;;2.13;;
2618;SDS011;1319;52.346;13.096;2023-08-20T08:42:14;3.80;;;2.28;;
2618;SDS011;1319;52.346;13.096;2023-08-20T08:44:39;2.25;;;2.15;;
2618;SDS011;1319;52.346;13.096;2023-08-20T08:47:05;3.67;;;1.90;;
2618;SDS011;1319;52.346;13.096;2023-08-20T08:49:33;4.25;;;2.25;;
2618;SDS011;1319;52.346;13.096;2023-08-20T08:51:58;2.35;;;2.08;;
2618;SDS011;1319;52.346;13.096;2023-08-20T08:54:23;2.00;;;1.90;;
2618;SDS011;1319;52.346;13.096;2023-08-20T08:56:49;2.88;;;2.10;;
2618;SDS011;1319;52.346;13.096;2023-08-20T08:59:15;2.38;;;2.20;;
2618;SDS011;1319;52.346;13.096;2023-08-20T09:01:40;2.10;;;2.00;;
2618;SDS011;1319;52.346;13.096;2023-08-20T09:04:05;2.20;;;1.83;;
2618;SDS011;1319;52.346;13.096;2023-08-20T09:09:11;2.05;;;1.85;;
2618;SDS011;1319;52.346;13.096;2023-08-20T09:11:37;3.13;;;1.85;;
2618;SDS011;1319;52.346;13.096;2023-08-20T09:14:02;2.83;;;1.80;;
2618;SDS011;1319;52.346;13.096;2023-08-20T09:16:29;3.60;;;2.05;;
2618;SDS011;1319;52.346;13.096;2023-08-20T09:18:54;2.80;;;2.53;;
2618;SDS011;1319;52.346;13.096;2023-08-20T09:21:20;2.83;;;1.90;;
2618;SDS011;1319;52.346;13.096;2023-08-20T09:23:53;2.88;;;1.92;;
2618;SDS011;1319;52.346;13.096;2023-08-20T09:26:18;2.63;;;2.00;;
2618;SDS011;1319;52.346;13.096;2023-08-20T09:28:44;1.90;;;1.70;;
2618;SDS011;1319;52.346;13.096;2023-08-20T09:31:10;2.40;;;2.17;;
2618;SDS011;1319;52.346;13.096;2023-08-20T09:33:35;3.10;;;1.90;;
2618;SDS011;1319;52.346;13.096;2023-08-20T09:36:02;3.78;;;2.33;;
2618;SDS011;1319;52.346;13.096;2023-08-20T09:38:28;4.22;;;2.00;;
2618;SDS011;1319;52.346;13.096;2023-08-20T09:40:53;4.38;;;2.00;;
2618;SDS011;1319;52.346;13.096;2023-08-20T09:43:21;3.80;;;2.00;;
2618;SDS011;1319;52.346;13.096;2023-08-20T09:45:48;2.30;;;2.20;;
2618;SDS011;1319;52.346;13.096;2023-08-20T09:48:18;2.42;;;2.28;;
2618;SDS011;1319;52.346;13.096;2023-08-20T09:50:45;2.72;;;2.25;;
2618;SDS011;1319;52.346;13.096;2023-08-20T09:53:34;3.00;;;2.00;;
2618;SDS011;1319;52.346;13.096;2023-08-20T09:55:58;3.05;;;1.98;;
2618;SDS011;1319;52.346;13.096;2023-08-20T09:58:26;2.33;;;1.92;;
2618;SDS011;1319;52.346;13.096;2023-08-20T10:00:52;4.38;;;2.10;;
2618;SDS011;1319;52.346;13.096;2023-08-20T10:03:18;2.88;;;2.00;;
2618;SDS011;1319;52.346;13.096;2023-08-20T10:05:48;2.10;;;2.00;;
2618;SDS011;1319;52.346;13.096;2023-08-20T10:08:15;2.80;;;2.10;;
2618;SDS011;1319;52.346;13.096;2023-08-20T10:10:40;2.65;;;2.45;;
2618;SDS011;1319;52.346;13.096;2023-08-20T10:13:05;3.65;;;2.72;;
2618;SDS011;1319;52.346;13.096;2023-08-20T10:15:31;2.13;;;2.03;;
2618;SDS011;1319;52.346;13.096;2023-08-20T10:17:57;2.65;;;2.20;;
2618;SDS011;1319;52.346;13.096;2023-08-20T10:20:22;2.75;;;2.55;;
2618;SDS011;1319;52.346;13.096;2023-08-20T10:22:48;2.72;;;2.50;;
2618;SDS011;1319;52.346;13.096;2023-08-20T10:25:24;2.42;;;2.22;;
2618;SDS011;1319;52.346;13.096;2023-08-20T10:27:50;3.90;;;2.28;;
2618;SDS011;1319;52.346;13.096;2023-08-20T10:30:18;3.03;;;2.45;;
2618;SDS011;1319;52.346;13.096;2023-08-20T10:32:52;3.47;;;2.63;;
2618;SDS011;1319;52.346;13.096;2023-08-20T10:35:18;4.15;;;2.63;;
2618;SDS011;1319;52.346;13.096;2023-08-20T10:48:33;4.22;;;2.70;;
2618;SDS011;1319;52.346;13.096;2023-08-20T10:51:12;3.90;;;2.70;;
2618;SDS011;1319;52.346;13.096;2023-08-20T10:53:38;4.97;;;2.80;;
2618;SDS011;1319;52.346;13.096;2023-08-20T10:58:34;4.18;;;2.90;;
2618;SDS011;1319;52.346;13.096;2023-08-20T11:01:12;3.13;;;2.63;;
2618;SDS011;1319;52.346;13.096;2023-08-20T11:03:38;3.63;;;2.72;;
2618;SDS011;1319;52.346;13.096;2023-08-20T11:06:04;2.60;;;2.45;;
2618;SDS011;1319;52.346;13.096;2023-08-20T11:08:29;2.50;;;2.38;;
2618;SDS011;1319;52.346;13.096;2023-08-20T11:10:54;3.00;;;2.80;;
2618;SDS011;1319;52.346;13.096;2023-08-20T11:13:20;3.17;;;2.50;;
2618;SDS011;1319;52.346;13.096;2023-08-20T11:15:45;2.60;;;2.40;;
2618;SDS011;1319;52.346;13.096;2023-08-20T11:18:10;4.05;;;2.50;;
2618;SDS011;1319;52.346;13.096;2023-08-20T11:20:36;3.60;;;2.10;;
2618;SDS011;1319;52.346;13.096;2023-08-20T11:23:01;2.85;;;2.17;;
2618;SDS011;1319;52.346;13.096;2023-08-20T11:25:26;4.05;;;2.05;;
2618;SDS011;1319;52.346;13.096;2023-08-20T11:27:52;5.18;;;2.28;;
2618;SDS011;1319;52.346;13.096;2023-08-20T11:30:17;2.45;;;2.00;;
2618;SDS011;1319;52.346;13.096;2023-08-20T11:32:43;4.55;;;1.98;;
2618;SDS011;1319;52.346;13.096;2023-08-20T11:35:10;4.18;;;2.10;;
2618;SDS011;1319;52.346;13.096;2023-08-20T11:37:36;2.90;;;1.90;;
2618;SDS011;1319;52.346;13.096;2023-08-20T11:40:01;6.88;;;2.00;;
2618;SDS011;1319;52.346;13.096;2023-08-20T11:42:26;5.28;;;2.20;;
2618;SDS011;1319;52.346;13.096;2023-08-20T11:44:54;4.47;;;2.10;;
2618;SDS011;1319;52.346;13.096;2023-08-20T11:47:20;3.05;;;1.90;;
2618;SDS011;1319;52.346;13.096;2023-08-20T11:49:45;4.10;;;1.98;;
2618;SDS011;1319;52.346;13.096;2023-08-20T11:52:10;2.10;;;2.00;;
2618;SDS011;1319;52.346;13.096;2023-08-20T11:54:38;2.03;;;1.92;;
2618;SDS011;1319;52.346;13.096;2023-08-20T11:57:04;4.43;;;2.05;;
2618;SDS011;1319;52.346;13.096;2023-08-20T11:59:30;4.30;;;2.10;;
2618;SDS011;1319;52.346;13.096;2023-08-20T12:01:56;2.60;;;1.80;;
2618;SDS011;1319;52.346;13.096;2023-08-20T12:04:23;3.15;;;2.08;;
2618;SDS011;1319;52.346;13.096;2023-08-20T12:06:52;2.10;;;1.95;;
2618;SDS011;1319;52.346;13.096;2023-08-20T12:09:25;5.95;;;1.92;;
2618;SDS011;1319;52.346;13.096;2023-08-20T12:11:51;2.13;;;1.92;;
2618;SDS011;1319;52.346;13.096;2023-08-20T12:14:17;3.53;;;2.28;;
2618;SDS011;1319;52.346;13.096;2023-08-20T12:16:42;2.05;;;1.75;;
2618;SDS011;1319;52.346;13.096;2023-08-20T12:19:08;2.80;;;1.73;;
2618;SDS011;1319;52.346;13.096;2023-08-20T12:21:34;2.83;;;1.90;;
2618;SDS011;1319;52.346;13.096;2023-08-20T12:23:59;1.90;;;1.80;;
2618;SDS011;1319;52.346;13.096;2023-08-20T12:26:24;1.70;;;1.70;;
2618;SDS011;1319;52.346;13.096;2023-08-20T12:28:50;1.98;;;1.88;;
2618;SDS011;1319;52.346;13.096;2023-08-20T12:31:15;1.98;;;1.80;;
2618;SDS011;1319;52.346;13.096;2023-08-20T12:33:40;1.95;;;1.70;;
2618;SDS011;1319;52.346;13.096;2023-08-20T12:36:05;2.00;;;1.90;;
2618;SDS011;1319;52.346;13.096;2023-08-20T12:38:31;2.17;;;1.98;;
2618;SDS011;1319;52.346;13.096;2023-08-20T12:40:58;1.80;;;1.70;;
2618;SDS011;1319;52.346;13.096;2023-08-20T12:43:24;3.42;;;1.88;;
2618;SDS011;1319;52.346;13.096;2023-08-20T12:45:49;4.35;;;1.80;;
2618;SDS011;1319;52.346;13.096;2023-08-20T12:48:14;3.03;;;1.90;;
2618;SDS011;1319;52.346;13.096;2023-08-20T12:50:40;2.10;;;1.88;;
2618;SDS011;1319;52.346;13.096;2023-08-20T12:53:05;6.63;;;2.00;;
2618;SDS011;1319;52.346;13.096;2023-08-20T12:55:30;2.40;;;2.10;;
2618;SDS011;1319;52.346;13.096;2023-08-20T12:57:56;2.75;;;2.00;;
2618;SDS011;1319;52.346;13.096;2023-08-20T13:00:22;2.80;;;1.80;;
2618;SDS011;1319;52.346;13.096;2023-08-20T13:02:47;3.40;;;2.10;;
2618;SDS011;1319;52.346;13.096;2023-08-20T13:05:13;2.38;;;2.10;;
2618;SDS011;1319;52.346;13.096;2023-08-20T13:07:38;2.25;;;1.50;;
2618;SDS011;1319;52.346;13.096;2023-08-20T13:10:04;2.17;;;1.98;;
2618;SDS011;1319;52.346;13.096;2023-08-20T13:12:29;2.20;;;2.08;;
2618;SDS011;1319;52.346;13.096;2023-08-20T13:14:56;2.83;;;1.92;;
2618;SDS011;1319;52.346;13.096;2023-08-20T13:17:22;4.10;;;1.80;;
2618;SDS011;1319;52.346;13.096;2023-08-20T13:19:47;2.67;;;2.05;;
2618;SDS011;1319;52.346;13.096;2023-08-20T13:22:12;2.08;;;1.90;;
2618;SDS011;1319;52.346;13.096;2023-08-20T13:24:38;4.13;;;1.90;;
2618;SDS011;1319;52.346;13.096;2023-08-20T13:27:03;2.00;;;1.83;;
2618;SDS011;1319;52.346;13.096;2023-08-20T13:29:28;6.43;;;2.20;;
2618;SDS011;1319;52.346;13.096;2023-08-20T13:31:53;2.83;;;1.98;;
2618;SDS011;1319;52.346;13.096;2023-08-20T13:34:19;2.30;;;2.00;;
2618;SDS011;1319;52.346;13.096;2023-08-20T13:36:44;4.80;;;2.00;;
2618;SDS011;1319;52.346;13.096;2023-08-20T13:39:09;2.83;;;1.90;;
2618;SDS011;1319;52.346;13.096;2023-08-20T13:41:36;2.20;;;2.00;;
2618;SDS011;1319;52.346;13.096;2023-08-20T13:44:01;5.60;;;1.95;;
2618;SDS011;1319;52.346;13.096;2023-08-20T13:46:27;3.08;;;1.95;;
2618;SDS011;1319;52.346;13.096;2023-08-20T13:48:53;4.68;;;2.25;;
2618;SDS011;1319;52.346;13.096;2023-08-20T13:51:18;1.90;;;1.80;;
2618;SDS011;1319;52.346;13.096;2023-08-20T13:53:44;3.80;;;1.88;;
2618;SDS011;1319;52.346;13.096;2023-08-20T13:56:09;3.47;;;2.10;;
2618;SDS011;1319;52.346;13.096;2023-08-20T13:58:34;2.92;;;1.80;;
2618;SDS011;1319;52.346;13.096;2023-08-20T14:00:59;12.20;;;1.92;;
2618;SDS011;1319;52.346;13.096;2023-08-20T14:03:25;2.00;;;1.85;;
2618;SDS011;1319;52.346;13.096;2023-08-20T14:05:50;2.55;;;1.58;;
2618;SDS011;1319;52.346;13.096;2023-08-20T14:08:15;2.55;;;1.80;;
2618;SDS011;1319;52.346;13.096;2023-08-20T14:10:40;2.00;;;1.80;;
2618;SDS011;1319;52.346;13.096;2023-08-20T14:13:06;2.50;;;1.85;;
2618;SDS011;1319;52.346;13.096;2023-08-20T14:15:31;3.15;;;1.70;;
2618;SDS011;1319;52.346;13.096;2023-08-20T14:17:56;2.85;;;1.67;;
2618;SDS011;1319;52.346;13.096;2023-08-20T14:20:21;2.20;;;2.00;;
2618;SDS011;1319;52.346;13.096;2023-08-20T14:22:46;2.88;;;1.95;;
2618;SDS011;1319;52.346;13.096;2023-08-20T14:25:12;2.40;;;1.75;;
2618;SDS011;1319;52.346;13.096;2023-08-20T14:27:37;2.45;;;1.92;;
2618;SDS011;1319;52.346;13.096;2023-08-20T14:30:03;4.32;;;2.08;;
2618;SDS011;1319;52.346;13.096;2023-08-20T14:32:29;3.58;;;2.00;;
2618;SDS011;1319;52.346;13.096;2023-08-20T14:34:55;2.25;;;1.92;;
2618;SDS011;1319;52.346;13.096;2023-08-20T14:37:20;2.70;;;1.75;;
2618;SDS011;1319;52.346;13.096;2023-08-20T14:39:45;2.35;;;1.95;;
2618;SDS011;1319;52.346;13.096;2023-08-20T14:42:10;3.10;;;1.92;;
2618;SDS011;1319;52.346;13.096;2023-08-20T14:44:36;1.90;;;1.75;;
2618;SDS011;1319;52.346;13.096;2023-08-20T14:47:01;2.35;;;1.92;;
2618;SDS011;1319;52.346;13.096;2023-08-20T14:49:26;2.17;;;1.90;;
2618;SDS011;1319;52.346;13.096;2023-08-20T14:51:53;3.45;;;2.20;;
2618;SDS011;1319;52.346;13.096;2023-08-20T14:54:18;3.85;;;1.75;;
2618;SDS011;1319;52.346;13.096;2023-08-20T14:56:44;3.80;;;2.00;;
2618;SDS011;1319;52.346;13.096;2023-08-20T14:59:10;3.85;;;1.80;;
2618;SDS011;1319;52.346;13.096;2023-08-20T15:01:35;4.40;;;1.92;;
2618;SDS011;1319;52.346;13.096;2023-08-20T15:04:01;4.13;;;2.10;;